createdAt,value
2023-05-10T00:01:17.903Z,12.72
2023-05-10T00:03:45.834Z,12.66
2023-05-10T00:06:13.647Z,12.63
2023-05-10T00:08:41.419Z,12.59
2023-05-10T00:11:09.339Z,12.61
2023-05-10T00:13:37.103Z,12.58
2023-05-10T00:16:07.116Z,12.62
2023-05-10T00:18:35.043Z,12.65
2023-05-10T00:21:02.789Z,12.64
2023-05-10T00:23:30.561Z,12.68
2023-05-10T00:25:58.362Z,12.66
2023-05-10T00:28:26.168Z,12.63
2023-05-10T00:30:53.970Z,12.60
2023-05-10T00:33:23.075Z,12.63
2023-05-10T00:35:51.081Z,12.71
2023-05-10T00:38:18.861Z,12.72
2023-05-10T00:40:46.633Z,12.71
2023-05-10T00:43:22.142Z,12.65
2023-05-10T00:45:50.571Z,12.58
2023-05-10T00:48:18.738Z,12.58
2023-05-10T00:50:47.952Z,12.58
2023-05-10T00:53:17.026Z,12.57
2023-05-10T00:55:46.449Z,12.55
2023-05-10T00:58:15.168Z,12.56
2023-05-10T01:00:44.442Z,12.54
2023-05-10T01:03:12.623Z,12.50
2023-05-10T01:05:40.583Z,12.49
2023-05-10T01:08:10.583Z,12.46
2023-05-10T01:10:38.386Z,12.44
2023-05-10T01:13:06.410Z,12.43
2023-05-10T01:15:34.651Z,12.47
2023-05-10T01:18:03.251Z,12.48
2023-05-10T01:20:37.687Z,12.42
2023-05-10T01:23:37.963Z,12.44
2023-05-10T01:26:46.714Z,12.45
2023-05-10T01:29:27.113Z,12.43
2023-05-10T01:32:10.454Z,12.43
2023-05-10T01:34:44.999Z,12.40
2023-05-10T01:37:17.964Z,12.38
2023-05-10T01:39:51.873Z,12.40
2023-05-10T01:42:23.311Z,12.38
2023-05-10T01:45:00.275Z,12.40
2023-05-10T01:47:36.435Z,12.41
2023-05-10T01:50:06.830Z,12.40
2023-05-10T01:52:38.670Z,12.41
2023-05-10T01:55:10.068Z,12.43
2023-05-10T01:57:41.335Z,12.43
2023-05-10T02:00:11.647Z,12.44
2023-05-10T02:02:47.720Z,12.46
2023-05-10T02:05:17.215Z,12.47
2023-05-10T02:07:46.502Z,12.48
2023-05-10T02:10:16.517Z,12.51
2023-05-10T02:12:48.143Z,12.50
2023-05-10T02:15:21.964Z,12.50
2023-05-10T02:17:51.537Z,12.50
2023-05-10T02:20:21.072Z,12.48
2023-05-10T02:22:51.283Z,12.45
2023-05-10T02:25:21.445Z,12.42
2023-05-10T02:27:50.276Z,12.41
2023-05-10T02:30:19.928Z,12.40
2023-05-10T02:32:49.185Z,12.37
2023-05-10T02:35:18.813Z,12.38
2023-05-10T02:37:47.891Z,12.35
2023-05-10T02:40:18.412Z,12.35
2023-05-10T02:42:49.668Z,12.37
2023-05-10T02:45:19.120Z,12.40
2023-05-10T02:47:46.965Z,12.41
2023-05-10T02:50:16.111Z,12.42
2023-05-10T02:52:49.038Z,12.43
2023-05-10T02:55:21.615Z,12.44
2023-05-10T02:57:54.559Z,12.41
2023-05-10T03:00:22.536Z,12.37
2023-05-10T03:02:50.313Z,12.27
2023-05-10T03:05:18.198Z,12.13
2023-05-10T03:07:47.917Z,12.10
2023-05-10T03:10:16.145Z,12.06
2023-05-10T03:13:04.220Z,12.02
2023-05-10T03:15:39.833Z,11.97
2023-05-10T03:18:11.703Z,11.95
2023-05-10T03:20:44.316Z,11.96
2023-05-10T03:23:25.277Z,11.95
2023-05-10T03:25:54.290Z,11.96
2023-05-10T03:28:23.374Z,11.97
2023-05-10T03:30:51.950Z,11.95
2023-05-10T03:33:19.782Z,11.91
2023-05-10T03:35:48.400Z,11.93
2023-05-10T03:38:18.523Z,11.95
2023-05-10T03:40:47.432Z,11.95
2023-05-10T03:43:15.239Z,11.95
2023-05-10T03:45:43.538Z,11.93
2023-05-10T03:48:11.594Z,11.89
2023-05-10T03:50:39.365Z,11.84
2023-05-10T03:53:07.145Z,11.84
2023-05-10T03:55:37.356Z,11.83
2023-05-10T03:58:05.253Z,11.81
2023-05-10T04:00:34.368Z,11.80
2023-05-10T04:03:02.492Z,11.79
2023-05-10T04:05:30.362Z,11.79
2023-05-10T04:07:58.132Z,11.81
2023-05-10T04:10:26.013Z,11.79
2023-05-10T04:12:55.116Z,11.80
2023-05-10T04:15:23.142Z,11.84
2023-05-10T04:17:51.314Z,11.82
2023-05-10T04:20:19.420Z,11.82
2023-05-10T04:22:47.309Z,11.82
2023-05-10T04:25:15.191Z,11.83
2023-05-10T04:27:42.984Z,11.82
2023-05-10T04:30:12.934Z,11.80
2023-05-10T04:32:40.714Z,11.79
2023-05-10T04:35:10.198Z,11.79
2023-05-10T04:37:38.563Z,11.80
2023-05-10T04:40:07.699Z,11.84
2023-05-10T04:42:35.536Z,11.87
2023-05-10T04:45:03.645Z,11.88
2023-05-10T04:47:33.593Z,11.88
2023-05-10T04:50:01.396Z,11.88
2023-05-10T04:52:29.152Z,11.90
2023-05-10T04:54:57.034Z,11.91
2023-05-10T04:57:24.849Z,11.90
2023-05-10T04:59:52.993Z,11.90
2023-05-10T05:02:20.768Z,11.93
2023-05-10T05:04:49.901Z,11.97
2023-05-10T05:07:17.726Z,11.97
2023-05-10T05:09:45.607Z,12.00
2023-05-10T05:12:15.214Z,12.00
2023-05-10T05:14:43.200Z,12.02
2023-05-10T05:17:10.985Z,12.02
2023-05-10T05:19:38.744Z,12.04
2023-05-10T05:22:08.602Z,12.08
2023-05-10T05:24:39.010Z,12.12
2023-05-10T05:27:06.836Z,12.11
2023-05-10T05:29:34.587Z,12.11
2023-05-10T05:32:03.196Z,12.12
2023-05-10T05:34:31.053Z,12.16
2023-05-10T05:36:58.850Z,12.18
2023-05-10T05:39:27.965Z,12.19
2023-05-10T05:41:55.713Z,12.20
2023-05-10T05:44:23.562Z,12.20
2023-05-10T05:46:51.359Z,12.19
2023-05-10T05:49:19.122Z,12.20
2023-05-10T05:51:46.890Z,12.20
2023-05-10T05:54:14.691Z,12.20
2023-05-10T05:56:45.155Z,12.20
2023-05-10T05:59:13.135Z,12.21
2023-05-10T06:01:40.895Z,12.20
2023-05-10T06:04:11.350Z,12.19
2023-05-10T06:06:39.110Z,12.16
2023-05-10T06:09:06.927Z,12.14
2023-05-10T06:11:35.006Z,12.14
2023-05-10T06:14:05.255Z,12.15
2023-05-10T06:16:33.337Z,12.16
2023-05-10T06:19:01.154Z,12.16
2023-05-10T06:21:28.915Z,12.15
2023-05-10T06:23:56.673Z,12.13
2023-05-10T06:26:24.447Z,12.15
2023-05-10T06:28:52.229Z,12.14
2023-05-10T06:31:21.922Z,12.16
2023-05-10T06:33:49.708Z,12.19
2023-05-10T06:36:17.477Z,12.21
2023-05-10T06:38:45.275Z,12.22
2023-05-10T06:41:13.073Z,12.22
2023-05-10T06:43:42.324Z,12.20
2023-05-10T06:46:10.316Z,12.20
2023-05-10T06:48:39.490Z,12.19
2023-05-10T06:51:07.371Z,12.22
2023-05-10T06:53:35.164Z,12.24
2023-05-10T06:56:04.456Z,12.23
2023-05-10T06:58:33.589Z,12.22
2023-05-10T07:01:04.907Z,12.22
2023-05-10T07:03:32.941Z,12.25
2023-05-10T07:06:06.232Z,12.27
2023-05-10T07:08:34.328Z,12.32
2023-05-10T07:11:03.191Z,12.34
2023-05-10T07:13:32.078Z,12.36
2023-05-10T07:16:00.306Z,12.39
2023-05-10T07:18:28.344Z,12.40
2023-05-10T07:20:56.236Z,12.43
2023-05-10T07:23:25.442Z,12.46
2023-05-10T07:25:54.344Z,12.47
2023-05-10T07:28:22.280Z,12.48
2023-05-10T07:30:50.144Z,12.46
2023-05-10T07:33:18.390Z,12.45
2023-05-10T07:35:46.248Z,12.47
2023-05-10T07:38:13.999Z,12.49
2023-05-10T07:40:43.173Z,12.52
2023-05-10T07:43:10.937Z,12.55
2023-05-10T07:45:38.756Z,12.58
2023-05-10T07:48:06.774Z,12.61
2023-05-10T07:50:34.796Z,12.65
2023-05-10T07:53:02.559Z,12.70
2023-05-10T07:55:30.302Z,12.76
2023-05-10T07:58:01.959Z,12.79
2023-05-10T08:00:29.770Z,12.86
2023-05-10T08:02:57.858Z,12.90
2023-05-10T08:05:25.743Z,12.94
2023-05-10T08:07:53.504Z,12.98
2023-05-10T08:10:21.296Z,13.00
2023-05-10T08:12:49.115Z,13.02
2023-05-10T08:15:18.759Z,13.03
2023-05-10T08:17:46.819Z,13.05
2023-05-10T08:20:17.987Z,13.07
2023-05-10T08:22:46.454Z,13.04
2023-05-10T08:25:15.107Z,13.06
2023-05-10T08:27:43.095Z,13.06
2023-05-10T08:30:11.593Z,13.05
2023-05-10T08:32:40.714Z,13.05
2023-05-10T08:35:08.881Z,13.05
2023-05-10T08:37:36.668Z,13.03
2023-05-10T08:40:05.016Z,13.03
2023-05-10T08:42:37.080Z,13.03
2023-05-10T08:45:06.572Z,13.03
2023-05-10T08:47:34.530Z,13.05
2023-05-10T08:50:05.020Z,13.08
2023-05-10T08:52:34.962Z,13.09
2023-05-10T08:55:02.993Z,13.09
2023-05-10T08:57:30.882Z,13.12
2023-05-10T08:59:58.625Z,13.12
2023-05-10T09:02:27.636Z,13.17
2023-05-10T09:04:55.540Z,13.19
2023-05-10T09:07:24.869Z,13.24
2023-05-10T09:09:53.654Z,13.30
2023-05-10T09:12:21.416Z,13.38
2023-05-10T09:14:49.825Z,13.46
2023-05-10T09:17:17.698Z,13.54
2023-05-10T09:19:47.222Z,13.63
2023-05-10T09:22:15.165Z,13.72
2023-05-10T09:24:46.251Z,13.85
2023-05-10T09:27:15.178Z,14.01
2023-05-10T09:29:44.459Z,14.12
2023-05-10T09:32:13.799Z,14.24
2023-05-10T09:34:42.181Z,14.36
2023-05-10T09:37:10.075Z,14.50
2023-05-10T09:39:39.608Z,14.63
2023-05-10T09:42:10.132Z,14.78
2023-05-10T09:44:38.996Z,14.86
2023-05-10T09:47:08.057Z,14.92
2023-05-10T09:49:36.478Z,14.98
2023-05-10T09:52:06.124Z,15.01
2023-05-10T09:54:34.466Z,15.08
2023-05-10T09:57:02.443Z,15.20
2023-05-10T09:59:32.067Z,15.29
2023-05-10T10:02:01.642Z,15.31
2023-05-10T10:04:31.016Z,15.28
2023-05-10T10:07:03.774Z,15.20
2023-05-10T10:09:31.910Z,15.15
2023-05-10T10:12:01.062Z,15.07
2023-05-10T10:14:29.161Z,15.04
2023-05-10T10:19:30.125Z,14.91
2023-05-10T10:21:58.156Z,14.90
2023-05-10T10:24:25.930Z,14.88
2023-05-10T10:26:58.253Z,14.95
2023-05-10T10:29:32.864Z,14.96
2023-05-10T10:32:21.047Z,15.04
2023-05-10T10:34:49.593Z,15.09
2023-05-10T10:37:17.402Z,15.06
2023-05-10T10:39:45.158Z,15.07
2023-05-10T10:42:12.967Z,15.05
2023-05-10T10:44:42.600Z,15.06
2023-05-10T10:47:30.006Z,15.05
2023-05-10T10:50:08.904Z,15.07
2023-05-10T10:52:37.880Z,15.10
2023-05-10T10:55:09.189Z,15.05
2023-05-10T10:57:46.818Z,14.97
2023-05-10T11:00:28.481Z,14.96
2023-05-10T11:03:00.482Z,14.98
2023-05-10T11:05:40.533Z,15.07
2023-05-10T11:08:14.299Z,15.13
2023-05-10T11:10:50.863Z,15.09
2023-05-10T11:13:18.678Z,15.06
2023-05-10T11:15:51.701Z,15.08
2023-05-10T11:18:22.197Z,15.09
2023-05-10T11:20:53.030Z,15.06
2023-05-10T11:23:22.029Z,15.02
2023-05-10T11:25:51.194Z,15.00
2023-05-10T11:28:20.867Z,15.07
2023-05-10T11:30:49.378Z,15.10
2023-05-10T11:33:18.564Z,15.14
2023-05-10T11:35:48.161Z,15.18
2023-05-10T11:38:16.330Z,15.26
2023-05-10T11:40:45.379Z,15.33
2023-05-10T11:43:13.406Z,15.49
2023-05-10T11:45:43.450Z,15.69
2023-05-10T11:48:11.380Z,15.98
2023-05-10T11:50:39.263Z,16.16
2023-05-10T11:53:08.459Z,16.24
2023-05-10T11:55:36.341Z,16.36
2023-05-10T11:58:04.506Z,16.44
2023-05-10T12:00:33.106Z,16.49
2023-05-10T12:03:03.734Z,16.47
2023-05-10T12:05:35.090Z,16.50
2023-05-10T12:08:17.474Z,16.51
2023-05-10T12:10:45.300Z,16.50
2023-05-10T12:13:15.243Z,16.48
2023-05-10T12:15:43.556Z,16.48
2023-05-10T12:18:12.567Z,16.53
2023-05-10T12:20:40.935Z,16.60
2023-05-10T12:23:11.594Z,16.64
2023-05-10T12:25:41.165Z,16.70
2023-05-10T12:30:56.175Z,16.84
2023-05-10T12:33:23.939Z,16.92
2023-05-10T12:35:53.523Z,16.96
2023-05-10T12:38:30.326Z,17.05
2023-05-10T12:40:59.394Z,17.17
2023-05-10T12:43:27.335Z,17.29
2023-05-10T12:45:55.680Z,17.41
2023-05-10T12:48:23.868Z,17.50
2023-05-10T12:50:51.608Z,17.62
2023-05-10T12:53:19.388Z,17.77
2023-05-10T12:55:47.179Z,17.82
2023-05-10T12:58:31.579Z,17.76
2023-05-10T13:01:02.539Z,17.78
2023-05-10T13:03:30.346Z,17.79
2023-05-10T13:05:58.197Z,17.73
2023-05-10T13:08:26.128Z,17.66
2023-05-10T13:10:54.206Z,17.65
2023-05-10T13:13:23.298Z,17.61
2023-05-10T13:15:51.056Z,17.57
2023-05-10T13:18:18.865Z,17.42
2023-05-10T13:20:46.778Z,16.83
2023-05-10T13:23:14.598Z,16.43
2023-05-10T13:25:42.372Z,16.11
2023-05-10T13:28:10.109Z,15.90
2023-05-10T13:30:39.284Z,15.60
2023-05-10T13:33:07.049Z,15.51
2023-05-10T13:35:34.911Z,15.34
2023-05-10T13:38:02.647Z,15.17
2023-05-10T13:40:30.432Z,14.96
2023-05-10T13:42:58.201Z,14.83
2023-05-10T13:45:25.963Z,14.68
2023-05-10T13:47:55.100Z,14.60
2023-05-10T13:50:22.863Z,14.45
2023-05-10T13:52:50.826Z,14.39
2023-05-10T13:55:18.737Z,14.35
2023-05-10T13:57:46.817Z,14.29
2023-05-10T14:00:15.675Z,14.29
2023-05-10T14:02:43.491Z,14.24
2023-05-10T14:05:12.911Z,14.23
2023-05-10T14:07:40.749Z,14.25
2023-05-10T14:10:09.078Z,14.29
2023-05-10T14:12:37.170Z,14.31
2023-05-10T14:15:07.676Z,14.32
2023-05-10T14:17:35.659Z,14.36
2023-05-10T14:20:04.727Z,14.38
2023-05-10T14:22:33.838Z,14.40
2023-05-10T14:25:01.724Z,14.38
2023-05-10T14:27:29.593Z,14.48
2023-05-10T14:29:57.387Z,14.52
2023-05-10T14:32:25.180Z,14.47
2023-05-10T14:34:52.927Z,14.47
2023-05-10T14:37:20.649Z,14.51
2023-05-10T14:39:49.751Z,14.50
2023-05-10T14:42:17.738Z,14.53
2023-05-10T14:44:45.514Z,14.53
2023-05-10T14:47:13.302Z,14.55
2023-05-10T14:49:41.788Z,14.62
2023-05-10T14:52:09.627Z,14.66
2023-05-10T14:54:37.408Z,14.67
2023-05-10T14:57:07.404Z,14.70
2023-05-10T14:59:35.190Z,14.71
2023-05-10T15:02:04.116Z,14.72
2023-05-10T15:04:32.455Z,14.74
2023-05-10T15:07:00.511Z,14.74
2023-05-10T15:09:28.825Z,14.75
2023-05-10T15:11:56.908Z,14.80
2023-05-10T15:14:26.713Z,14.80
2023-05-10T15:16:54.462Z,14.85
2023-05-10T15:19:22.239Z,14.87
2023-05-10T15:21:49.986Z,14.95
2023-05-10T15:24:17.921Z,15.04
2023-05-10T15:26:45.737Z,15.09
2023-05-10T15:29:20.485Z,15.18
2023-05-10T15:31:50.052Z,15.25
2023-05-10T15:34:18.751Z,15.31
2023-05-10T15:36:46.725Z,15.36
2023-05-10T15:39:14.489Z,15.38
2023-05-10T15:41:42.242Z,15.40
2023-05-10T15:44:13.564Z,15.44
2023-05-10T15:46:41.593Z,15.48
2023-05-10T15:49:10.794Z,15.54
2023-05-10T15:51:38.568Z,15.60
2023-05-10T15:54:11.670Z,15.67
2023-05-10T15:56:39.528Z,15.71
2023-05-10T15:59:08.660Z,15.76
2023-05-10T16:01:36.487Z,15.78
2023-05-10T16:04:04.719Z,15.77
2023-05-10T16:06:34.260Z,15.72
2023-05-10T16:09:14.681Z,15.66
2023-05-10T16:11:44.140Z,15.60
2023-05-10T16:14:11.918Z,15.56
2023-05-10T16:16:40.054Z,15.57
2023-05-10T16:19:08.097Z,15.60
2023-05-10T16:21:38.022Z,15.62
2023-05-10T16:24:06.190Z,15.66
2023-05-10T16:27:06.163Z,15.67
2023-05-10T16:29:34.081Z,15.66
2023-05-10T16:32:02.051Z,15.62
2023-05-10T16:34:29.851Z,15.61
2023-05-10T16:36:58.971Z,15.57
2023-05-10T16:39:26.761Z,15.53
2023-05-10T16:41:54.538Z,15.55
2023-05-10T16:44:23.923Z,15.55
2023-05-10T16:46:54.965Z,15.52
2023-05-10T16:49:24.499Z,15.56
2023-05-10T16:51:53.638Z,15.60
2023-05-10T16:54:22.828Z,15.62
2023-05-10T16:56:50.714Z,15.57
2023-05-10T16:59:18.485Z,15.64
2023-05-10T17:01:47.320Z,15.65
2023-05-10T17:04:15.507Z,15.71
2023-05-10T17:06:43.470Z,15.73
2023-05-10T17:09:12.181Z,15.72
2023-05-10T17:11:42.122Z,15.72
2023-05-10T17:14:10.150Z,15.78
2023-05-10T17:16:37.993Z,15.78
2023-05-10T17:19:05.905Z,15.79
2023-05-10T17:21:33.796Z,15.82
2023-05-10T17:24:01.557Z,15.86
2023-05-10T17:26:30.088Z,15.87
2023-05-10T17:29:00.640Z,15.88
2023-05-10T17:31:28.720Z,15.88
2023-05-10T17:33:56.550Z,15.87
2023-05-10T17:36:24.325Z,15.85
2023-05-10T17:38:52.469Z,15.81
2023-05-10T17:41:20.310Z,15.80
2023-05-10T17:43:48.085Z,15.78
2023-05-10T17:46:17.597Z,15.75
2023-05-10T17:48:45.446Z,15.77
2023-05-10T17:51:13.356Z,15.76
2023-05-10T17:53:41.340Z,15.70
2023-05-10T17:56:09.617Z,15.63
2023-05-10T17:58:38.231Z,15.62
2023-05-10T18:01:06.685Z,15.57
2023-05-10T18:03:35.972Z,15.53
2023-05-10T18:06:04.708Z,15.50
2023-05-10T18:08:33.101Z,15.51
2023-05-10T18:11:00.923Z,15.49
2023-05-10T18:13:28.888Z,15.49
2023-05-10T18:15:56.778Z,15.49
2023-05-10T18:18:25.291Z,15.49
2023-05-10T18:20:57.568Z,15.50
2023-05-10T18:23:25.608Z,15.52
2023-05-10T18:25:53.726Z,15.50
2023-05-10T18:28:21.591Z,15.51
2023-05-10T18:30:49.474Z,15.51
2023-05-10T18:33:17.314Z,15.49
2023-05-10T18:35:45.170Z,15.47
2023-05-10T18:38:14.449Z,15.46
2023-05-10T18:40:42.442Z,15.46
2023-05-10T18:43:10.198Z,15.43
2023-05-10T18:45:39.029Z,15.41
2023-05-10T18:48:07.805Z,15.39
2023-05-10T18:50:35.683Z,15.38
2023-05-10T18:53:04.161Z,15.31
2023-05-10T18:55:33.443Z,15.28
2023-05-10T18:58:01.236Z,15.27
2023-05-10T19:00:29.053Z,15.27
2023-05-10T19:02:56.909Z,15.23
2023-05-10T19:05:29.800Z,15.20
2023-05-10T19:07:57.577Z,15.19
2023-05-10T19:10:25.650Z,15.14
2023-05-10T19:12:54.811Z,15.11
2023-05-10T19:15:22.824Z,15.07
2023-05-10T19:17:51.624Z,15.03
2023-05-10T19:20:19.559Z,15.03
2023-05-10T19:23:02.312Z,14.96
2023-05-10T19:25:35.379Z,14.91
2023-05-10T19:28:04.601Z,14.80
2023-05-10T19:30:32.569Z,14.73
2023-05-10T19:33:04.346Z,14.76
2023-05-10T19:35:32.342Z,14.83
2023-05-10T19:38:00.310Z,14.81
2023-05-10T19:40:28.091Z,14.80
2023-05-10T19:42:57.092Z,14.82
2023-05-10T19:45:26.755Z,14.83
2023-05-10T19:47:54.760Z,14.80
2023-05-10T19:50:22.538Z,14.81
2023-05-10T19:52:50.623Z,14.79
2023-05-10T19:55:28.357Z,14.72
2023-05-10T19:57:56.699Z,14.71
2023-05-10T20:00:27.292Z,14.62
2023-05-10T20:02:55.753Z,14.55
2023-05-10T20:05:23.752Z,14.52
2023-05-10T20:07:51.723Z,14.48
2023-05-10T20:10:19.766Z,14.49
2023-05-10T20:12:51.222Z,14.54
2023-05-10T20:15:20.478Z,14.54
2023-05-10T20:17:52.057Z,14.53
2023-05-10T20:20:20.567Z,14.47
2023-05-10T20:22:49.486Z,14.37
2023-05-10T20:25:18.541Z,14.39
2023-05-10T20:27:46.392Z,14.40
2023-05-10T20:30:14.503Z,14.32
2023-05-10T20:32:42.341Z,14.33
2023-05-10T20:35:11.883Z,14.31
2023-05-10T20:37:39.873Z,14.32
2023-05-10T20:40:08.635Z,14.32
2023-05-10T20:42:36.474Z,14.31
2023-05-10T20:45:04.456Z,14.28
2023-05-10T20:47:32.463Z,14.29
2023-05-10T20:50:00.333Z,14.29
2023-05-10T20:52:29.454Z,14.31
2023-05-10T20:54:57.224Z,14.32
2023-05-10T20:57:25.018Z,14.31
2023-05-10T20:59:52.844Z,14.32
2023-05-10T21:02:20.584Z,14.30
2023-05-10T21:04:48.363Z,14.29
2023-05-10T21:07:16.184Z,14.27
2023-05-10T21:09:45.388Z,14.25
2023-05-10T21:12:13.192Z,14.25
2023-05-10T21:14:42.300Z,14.23
2023-05-10T21:17:10.286Z,14.22
2023-05-10T21:19:38.088Z,14.24
2023-05-10T21:22:06.323Z,14.23
2023-05-10T21:24:35.027Z,14.23
2023-05-10T21:27:04.497Z,14.21
2023-05-10T21:29:32.261Z,14.16
2023-05-10T21:32:00.031Z,14.13
2023-05-10T21:34:27.998Z,14.12
2023-05-10T21:36:55.887Z,14.10
2023-05-10T21:39:23.637Z,14.10
2023-05-10T21:41:51.433Z,14.07
2023-05-10T21:44:21.037Z,14.04
2023-05-10T21:46:49.018Z,14.01
2023-05-10T21:49:16.773Z,13.98
2023-05-10T21:51:44.602Z,13.98
2023-05-10T21:54:12.448Z,13.98
2023-05-10T21:56:40.192Z,13.97
2023-05-10T21:59:07.926Z,13.96
2023-05-10T22:01:37.090Z,13.98
2023-05-10T22:04:04.898Z,13.95
2023-05-10T22:06:33.014Z,13.93
2023-05-10T22:09:00.862Z,13.90
2023-05-10T22:11:28.661Z,13.88
2023-05-10T22:13:56.443Z,13.86
2023-05-10T22:16:24.243Z,13.84
2023-05-10T22:18:54.402Z,13.83
2023-05-10T22:21:22.569Z,13.83
2023-05-10T22:23:50.366Z,13.83
2023-05-10T22:26:18.119Z,13.81
2023-05-10T22:28:45.905Z,13.80
2023-05-10T22:31:13.714Z,13.79
2023-05-10T22:33:41.524Z,13.78
2023-05-10T22:36:10.731Z,13.75
2023-05-10T22:38:38.571Z,13.72
2023-05-10T22:41:06.576Z,13.70
2023-05-10T22:43:34.340Z,13.68
2023-05-10T22:46:02.177Z,13.66
2023-05-10T22:48:30.076Z,13.66
2023-05-10T22:50:57.863Z,13.61
2023-05-10T22:53:26.964Z,13.58
2023-05-10T22:55:54.772Z,13.58
2023-05-10T22:58:22.546Z,13.53
2023-05-10T23:00:50.404Z,13.50
2023-05-10T23:03:19.174Z,13.49
2023-05-10T23:05:46.908Z,13.44
2023-05-10T23:08:14.744Z,13.40
2023-05-10T23:10:44.036Z,13.37
2023-05-10T23:13:11.818Z,13.35
2023-05-10T23:15:40.164Z,13.32
2023-05-10T23:18:09.660Z,13.29
2023-05-10T23:20:37.490Z,13.29
2023-05-10T23:23:05.256Z,13.27
2023-05-10T23:25:32.992Z,13.24
2023-05-10T23:28:02.072Z,13.26
2023-05-10T23:30:31.362Z,13.27
2023-05-10T23:32:59.217Z,13.26
2023-05-10T23:35:27.097Z,13.24
2023-05-10T23:37:55.044Z,13.26
2023-05-10T23:40:22.913Z,13.23
2023-05-10T23:42:50.687Z,13.23
2023-05-10T23:45:20.014Z,13.22
2023-05-10T23:47:47.823Z,13.20
2023-05-10T23:50:15.902Z,13.21
2023-05-10T23:52:43.739Z,13.19
2023-05-10T23:55:12.221Z,13.20
2023-05-10T23:57:40.018Z,13.16
